createdAt,value
2023-04-06T00:00:12.345Z,2.29
2023-04-06T00:01:12.271Z,2.28
2023-04-06T00:02:12.309Z,2.28
2023-04-06T00:03:12.384Z,2.29
2023-04-06T00:04:12.362Z,2.29
2023-04-06T00:05:12.226Z,2.29
2023-04-06T00:06:12.226Z,2.29
2023-04-06T00:07:12.210Z,2.29
2023-04-06T00:08:12.202Z,2.29
2023-04-06T00:09:12.167Z,2.29
2023-04-06T00:10:12.184Z,2.29
2023-04-06T00:11:12.153Z,2.29
2023-04-06T00:12:12.161Z,2.29
2023-04-06T00:13:12.109Z,2.28
2023-04-06T00:14:12.121Z,2.26
2023-04-06T00:15:12.125Z,2.25
2023-04-06T00:16:12.132Z,2.25
2023-04-06T00:17:12.220Z,2.25
2023-04-06T00:18:12.132Z,2.24
2023-04-06T00:19:12.085Z,2.22
2023-04-06T00:20:12.074Z,2.20
2023-04-06T00:21:12.037Z,2.18
2023-04-06T00:22:12.229Z,2.18
2023-04-06T00:23:12.025Z,2.17
2023-04-06T00:24:12.069Z,2.14
2023-04-06T00:25:12.131Z,2.14
2023-04-06T00:26:12.677Z,2.13
2023-04-06T00:27:11.980Z,2.11
2023-04-06T00:28:11.966Z,2.11
2023-04-06T00:29:11.977Z,2.08
2023-04-06T00:30:11.963Z,2.07
2023-04-06T00:31:11.958Z,2.06
2023-04-06T00:32:12.009Z,2.06
2023-04-06T00:33:11.962Z,2.06
2023-04-06T00:34:12.005Z,2.04
2023-04-06T00:35:11.902Z,2.02
2023-04-06T00:36:11.945Z,2.00
2023-04-06T00:37:11.872Z,1.99
2023-04-06T00:38:11.873Z,1.97
2023-04-06T00:39:11.878Z,1.97
2023-04-06T00:40:11.837Z,1.94
2023-04-06T00:41:11.812Z,1.95
2023-04-06T00:42:11.866Z,1.92
2023-04-06T00:43:11.819Z,1.95
2023-04-06T00:44:11.786Z,1.94
2023-04-06T00:45:11.804Z,1.91
2023-04-06T00:46:12.073Z,1.92
2023-04-06T00:47:11.759Z,1.92
2023-04-06T00:48:11.728Z,1.94
2023-04-06T00:49:11.790Z,1.92
2023-04-06T00:50:11.735Z,1.94
2023-04-06T00:51:11.705Z,1.92
2023-04-06T00:52:11.713Z,1.92
2023-04-06T00:53:11.689Z,1.95
2023-04-06T00:54:11.663Z,1.94
2023-04-06T00:55:11.688Z,1.94
2023-04-06T00:56:11.633Z,1.95
2023-04-06T00:57:11.669Z,1.92
2023-04-06T00:58:11.626Z,1.92
2023-04-06T00:59:11.653Z,1.89
2023-04-06T01:00:11.619Z,1.88
2023-04-06T01:01:11.681Z,1.88
2023-04-06T01:02:11.566Z,1.87
2023-04-06T01:03:11.593Z,1.87
2023-04-06T01:04:11.632Z,1.85
2023-04-06T01:05:11.650Z,1.80
2023-04-06T01:06:11.563Z,1.80
2023-04-06T01:07:11.540Z,1.76
2023-04-06T01:08:11.522Z,1.76
2023-04-06T01:09:11.503Z,1.74
2023-04-06T01:10:11.495Z,1.73
2023-04-06T01:11:11.508Z,1.71
2023-04-06T01:12:11.488Z,1.70
2023-04-06T01:13:11.488Z,1.68
2023-04-06T01:14:11.471Z,1.66
2023-04-06T01:15:11.506Z,1.63
2023-04-06T01:16:11.495Z,1.63
2023-04-06T01:17:11.452Z,1.59
2023-04-06T01:18:11.493Z,1.60
2023-04-06T01:19:11.397Z,1.59
2023-04-06T01:20:11.385Z,1.58
2023-04-06T01:21:11.383Z,1.58
2023-04-06T01:22:11.380Z,1.56
2023-04-06T01:23:11.412Z,1.55
2023-04-06T01:24:11.340Z,1.55
2023-04-06T01:25:11.323Z,1.55
2023-04-06T01:26:11.335Z,1.55
2023-04-06T01:27:11.329Z,1.52
2023-04-06T01:28:11.283Z,1.52
2023-04-06T01:29:11.312Z,1.50
2023-04-06T01:30:11.269Z,1.49
2023-04-06T01:31:11.294Z,1.48
2023-04-06T01:32:11.271Z,1.45
2023-04-06T01:33:11.287Z,1.45
2023-04-06T01:34:11.222Z,1.45
2023-04-06T01:35:11.221Z,1.44
2023-04-06T01:36:11.199Z,1.45
2023-04-06T01:37:11.183Z,1.42
2023-04-06T01:38:11.186Z,1.41
2023-04-06T01:39:11.227Z,1.41
2023-04-06T01:40:11.170Z,1.38
2023-04-06T01:41:11.145Z,1.37
2023-04-06T01:42:11.150Z,1.37
2023-04-06T01:43:11.129Z,1.37
2023-04-06T01:44:11.210Z,1.35
2023-04-06T01:45:11.116Z,1.35
2023-04-06T01:46:11.143Z,1.32
2023-04-06T01:47:11.085Z,1.32
2023-04-06T01:48:11.109Z,1.32
2023-04-06T01:49:11.075Z,1.32
2023-04-06T01:50:11.065Z,1.31
2023-04-06T01:51:11.034Z,1.32
2023-04-06T01:52:11.029Z,1.31
2023-04-06T01:53:11.032Z,1.28
2023-04-06T01:54:10.996Z,1.28
2023-04-06T01:55:11.000Z,1.28
2023-04-06T01:56:10.984Z,1.26
2023-04-06T01:57:10.969Z,1.26
2023-04-06T01:58:10.964Z,1.26
2023-04-06T01:59:11.167Z,1.24
2023-04-06T02:00:10.978Z,1.24
2023-04-06T02:01:10.990Z,1.23
2023-04-06T02:02:10.929Z,1.24
2023-04-06T02:03:10.917Z,1.22
2023-04-06T02:04:10.883Z,1.22
2023-04-06T02:05:10.920Z,1.23
2023-04-06T02:06:10.859Z,1.24
2023-04-06T02:07:10.866Z,1.23
2023-04-06T02:08:10.846Z,1.23
2023-04-06T02:09:10.872Z,1.23
2023-04-06T02:10:10.832Z,1.23
2023-04-06T02:11:10.813Z,1.24
2023-04-06T02:12:10.803Z,1.26
2023-04-06T02:13:10.795Z,1.28
2023-04-06T02:14:10.781Z,1.31
2023-04-06T02:15:10.787Z,1.31
2023-04-06T02:16:10.824Z,1.32
2023-04-06T02:17:10.809Z,1.34
2023-04-06T02:18:10.891Z,1.34
2023-04-06T02:19:17.808Z,1.34
2023-04-06T02:20:10.704Z,1.35
2023-04-06T02:21:10.728Z,1.32
2023-04-06T02:22:10.687Z,1.32
2023-04-06T02:23:10.681Z,1.32
2023-04-06T02:24:10.659Z,1.31
2023-04-06T02:25:10.669Z,1.31
2023-04-06T02:26:10.663Z,1.32
2023-04-06T02:27:10.648Z,1.31
2023-04-06T02:28:10.643Z,1.32
2023-04-06T02:29:10.619Z,1.35
2023-04-06T02:30:10.615Z,1.38
2023-04-06T02:31:10.624Z,1.37
2023-04-06T02:32:10.659Z,1.38
2023-04-06T02:33:10.592Z,1.38
2023-04-06T02:34:10.561Z,1.40
2023-04-06T02:35:10.561Z,1.40
2023-04-06T02:36:10.524Z,1.40
2023-04-06T02:37:10.555Z,1.38
2023-04-06T02:38:10.518Z,1.38
2023-04-06T02:39:10.659Z,1.35
2023-04-06T02:40:10.503Z,1.37
2023-04-06T02:41:10.499Z,1.34
2023-04-06T02:42:10.491Z,1.35
2023-04-06T02:43:10.465Z,1.31
2023-04-06T02:44:10.446Z,1.32
2023-04-06T02:45:10.445Z,1.32
2023-04-06T02:46:10.468Z,1.30
2023-04-06T02:47:10.430Z,1.30
2023-04-06T02:48:10.423Z,1.26
2023-04-06T02:49:10.624Z,1.26
2023-04-06T02:50:10.389Z,1.24
2023-04-06T02:51:10.371Z,1.26
2023-04-06T02:52:10.399Z,1.24
2023-04-06T02:53:10.376Z,1.24
2023-04-06T02:54:10.367Z,1.23
2023-04-06T02:55:10.337Z,1.23
2023-04-06T02:56:10.317Z,1.22
2023-04-06T02:57:10.330Z,1.20
2023-04-06T02:58:10.339Z,1.19
2023-04-06T02:59:10.543Z,1.16
2023-04-06T03:00:10.266Z,1.16
2023-04-06T03:01:10.413Z,1.13
2023-04-06T03:02:10.234Z,1.12
2023-04-06T03:03:10.306Z,1.12
2023-04-06T03:04:10.253Z,1.06
2023-04-06T03:05:10.245Z,1.06
2023-04-06T03:06:10.189Z,1.05
2023-04-06T03:07:10.197Z,1.02
2023-04-06T03:08:10.209Z,1.01
2023-04-06T03:09:10.303Z,0.99
2023-04-06T03:10:10.163Z,1.02
2023-04-06T03:11:10.158Z,0.98
2023-04-06T03:12:10.482Z,0.96
2023-04-06T03:13:10.154Z,0.96
2023-04-06T03:14:10.141Z,0.94
2023-04-06T03:15:10.109Z,0.91
2023-04-06T03:16:10.140Z,0.88
2023-04-06T03:17:10.086Z,0.87
2023-04-06T03:18:10.105Z,0.84
2023-04-06T03:19:10.348Z,0.81
2023-04-06T03:20:10.038Z,0.80
2023-04-06T03:21:10.046Z,0.78
2023-04-06T03:22:10.020Z,0.76
2023-04-06T03:23:10.059Z,0.73
2023-04-06T03:24:10.029Z,0.73
2023-04-06T03:25:09.990Z,0.70
2023-04-06T03:26:09.980Z,0.68
2023-04-06T03:27:09.971Z,0.66
2023-04-06T03:28:09.953Z,0.63
2023-04-06T03:29:10.156Z,0.63
2023-04-06T03:30:09.936Z,0.60
2023-04-06T03:31:09.926Z,0.58
2023-04-06T03:32:11.005Z,0.56
2023-04-06T03:33:09.897Z,0.55
2023-04-06T03:34:09.882Z,0.55
2023-04-06T03:35:09.893Z,0.52
2023-04-06T03:36:09.892Z,0.49
2023-04-06T03:37:10.898Z,0.47
2023-04-06T03:38:09.843Z,0.47
2023-04-06T03:39:10.038Z,0.46
2023-04-06T03:40:09.832Z,0.47
2023-04-06T03:41:09.838Z,0.46
2023-04-06T03:42:09.839Z,0.47
2023-04-06T03:43:09.789Z,0.46
2023-04-06T03:44:09.767Z,0.46
2023-04-06T03:45:09.788Z,0.46
2023-04-06T03:46:09.823Z,0.46
2023-04-06T03:47:09.747Z,0.47
2023-04-06T03:48:09.804Z,0.44
2023-04-06T03:49:09.974Z,0.44
2023-04-06T03:50:09.695Z,0.43
2023-04-06T03:51:09.720Z,0.43
2023-04-06T03:52:09.743Z,0.41
2023-04-06T03:53:09.698Z,0.41
2023-04-06T03:54:09.690Z,0.39
2023-04-06T03:55:09.701Z,0.39
2023-04-06T03:56:09.706Z,0.37
2023-04-06T03:57:09.726Z,0.37
2023-04-06T03:58:09.670Z,0.34
2023-04-06T03:59:10.040Z,0.32
2023-04-06T04:00:09.591Z,0.32
2023-04-06T04:01:09.609Z,0.29
2023-04-06T04:02:09.617Z,0.29
2023-04-06T04:03:09.800Z,0.29
2023-04-06T04:04:09.541Z,0.28
2023-04-06T04:05:09.617Z,0.28
2023-04-06T04:06:09.534Z,0.25
2023-04-06T04:07:09.528Z,0.26
2023-04-06T04:08:09.592Z,0.25
2023-04-06T04:09:09.726Z,0.25
2023-04-06T04:10:09.480Z,0.26
2023-04-06T04:11:09.482Z,0.28
2023-04-06T04:12:09.450Z,0.25
2023-04-06T04:13:09.459Z,0.29
2023-04-06T04:14:09.463Z,0.28
2023-04-06T04:15:09.440Z,0.28
2023-04-06T04:16:09.477Z,0.31
2023-04-06T04:17:09.411Z,0.31
2023-04-06T04:18:09.462Z,0.32
2023-04-06T04:19:09.722Z,0.32
2023-04-06T04:20:09.381Z,0.34
2023-04-06T04:21:09.371Z,0.34
2023-04-06T04:22:09.356Z,0.34
2023-04-06T04:23:09.414Z,0.34
2023-04-06T04:24:09.373Z,0.36
2023-04-06T04:25:09.363Z,0.34
2023-04-06T04:26:09.310Z,0.36
2023-04-06T04:27:09.312Z,0.34
2023-04-06T04:28:09.285Z,0.34
2023-04-06T04:29:09.653Z,0.34
2023-04-06T04:30:09.288Z,0.34
2023-04-06T04:31:09.278Z,0.34
2023-04-06T04:32:09.311Z,0.36
2023-04-06T04:33:09.307Z,0.36
2023-04-06T04:34:09.273Z,0.34
2023-04-06T04:35:09.236Z,0.34
2023-04-06T04:36:09.296Z,0.32
2023-04-06T04:37:09.207Z,0.32
2023-04-06T04:38:09.197Z,0.31
2023-04-06T04:39:09.386Z,0.31
2023-04-06T04:40:09.179Z,0.29
2023-04-06T04:41:09.174Z,0.28
2023-04-06T04:42:09.137Z,0.28
2023-04-06T04:43:09.148Z,0.26
2023-04-06T04:44:09.108Z,0.26
2023-04-06T04:45:09.171Z,0.25
2023-04-06T04:46:09.172Z,0.25
2023-04-06T04:47:09.100Z,0.26
2023-04-06T04:48:09.109Z,0.25
2023-04-06T04:49:09.346Z,0.26
2023-04-06T04:50:09.044Z,0.25
2023-04-06T04:51:09.064Z,0.26
2023-04-06T04:52:09.022Z,0.25
2023-04-06T04:53:09.029Z,0.26
2023-04-06T04:54:09.121Z,0.28
2023-04-06T04:55:09.073Z,0.28
2023-04-06T04:56:08.987Z,0.28
2023-04-06T04:57:08.985Z,0.28
2023-04-06T04:58:08.977Z,0.28
2023-04-06T04:59:09.175Z,0.28
2023-04-06T05:00:08.963Z,0.28
2023-04-06T05:01:09.036Z,0.28
2023-04-06T05:02:09.241Z,0.28
2023-04-06T05:03:09.275Z,0.26
2023-04-06T05:04:09.895Z,0.26
2023-04-06T05:05:09.542Z,0.26
2023-04-06T05:06:09.677Z,0.26
2023-04-06T05:07:08.858Z,0.25
2023-04-06T05:08:08.919Z,0.26
2023-04-06T05:09:09.056Z,0.26
2023-04-06T05:10:08.857Z,0.26
2023-04-06T05:11:08.839Z,0.26
2023-04-06T05:12:08.848Z,0.26
2023-04-06T05:13:08.793Z,0.26
2023-04-06T05:14:08.964Z,0.26
2023-04-06T05:15:08.925Z,0.26
2023-04-06T05:16:08.881Z,0.25
2023-04-06T05:17:08.764Z,0.25
2023-04-06T05:18:08.890Z,0.26
2023-04-06T05:19:09.038Z,0.25
2023-04-06T05:20:08.745Z,0.23
2023-04-06T05:21:08.740Z,0.25
2023-04-06T05:22:08.731Z,0.25
2023-04-06T05:23:08.704Z,0.28
2023-04-06T05:24:08.828Z,0.28
2023-04-06T05:25:08.678Z,0.29
2023-04-06T05:26:08.680Z,0.31
2023-04-06T05:27:08.634Z,0.32
2023-04-06T05:28:08.649Z,0.34
2023-04-06T05:29:08.864Z,0.36
2023-04-06T05:30:08.635Z,0.37
2023-04-06T05:31:08.645Z,0.39
2023-04-06T05:32:08.618Z,0.40
2023-04-06T05:33:08.632Z,0.40
2023-04-06T05:34:08.591Z,0.41
2023-04-06T05:35:08.589Z,0.41
2023-04-06T05:36:08.550Z,0.41
2023-04-06T05:37:08.532Z,0.43
2023-04-06T05:38:08.534Z,0.43
2023-04-06T05:39:08.811Z,0.46
2023-04-06T05:40:08.555Z,0.46
2023-04-06T05:41:08.516Z,0.46
2023-04-06T05:42:08.475Z,0.47
2023-04-06T05:43:08.449Z,0.47
2023-04-06T05:44:08.478Z,0.47
2023-04-06T05:45:08.440Z,0.50
2023-04-06T05:46:09.026Z,0.50
2023-04-06T05:47:08.410Z,0.50
2023-04-06T05:48:08.463Z,0.52
2023-04-06T05:49:08.813Z,0.52
2023-04-06T05:50:08.480Z,0.55
2023-04-06T05:51:08.359Z,0.56
2023-04-06T05:52:08.397Z,0.55
2023-04-06T05:53:08.351Z,0.58
2023-04-06T05:54:08.758Z,0.60
2023-04-06T05:55:10.224Z,0.63
2023-04-06T05:56:08.577Z,0.63
2023-04-06T05:57:08.324Z,0.66
2023-04-06T05:58:08.361Z,0.70
2023-04-06T05:59:08.693Z,0.70
2023-04-06T06:00:08.332Z,0.74
2023-04-06T06:01:08.583Z,0.78
2023-04-06T06:02:08.455Z,0.80
2023-04-06T06:03:08.439Z,0.83
2023-04-06T06:04:08.380Z,0.86
2023-04-06T06:05:08.441Z,0.91
2023-04-06T06:06:08.380Z,0.92
2023-04-06T06:07:08.449Z,0.96
2023-04-06T06:08:08.427Z,0.96
2023-04-06T06:09:08.671Z,1.01
2023-04-06T06:10:08.424Z,1.04
2023-04-06T06:11:08.208Z,1.06
2023-04-06T06:12:08.219Z,1.10
2023-04-06T06:13:08.123Z,1.14
2023-04-06T06:14:08.130Z,1.16
2023-04-06T06:15:08.112Z,1.17
2023-04-06T06:16:08.130Z,1.20
2023-04-06T06:17:08.070Z,1.23
2023-04-06T06:18:08.200Z,1.26
2023-04-06T06:19:08.321Z,1.30
2023-04-06T06:20:08.067Z,1.31
2023-04-06T06:21:08.030Z,1.35
2023-04-06T06:22:08.012Z,1.38
2023-04-06T06:23:08.424Z,1.41
2023-04-06T06:24:08.014Z,1.42
2023-04-06T06:25:07.984Z,1.45
2023-04-06T06:26:07.992Z,1.50
2023-04-06T06:27:07.965Z,1.52
2023-04-06T06:28:07.991Z,1.55
2023-04-06T06:29:08.216Z,1.59
2023-04-06T06:30:07.973Z,1.62
2023-04-06T06:31:07.983Z,1.67
2023-04-06T06:32:07.944Z,1.71
2023-04-06T06:33:08.045Z,1.74
2023-04-06T06:34:07.945Z,1.77
2023-04-06T06:35:07.892Z,1.84
2023-04-06T06:36:07.884Z,1.87
2023-04-06T06:37:07.855Z,1.92
2023-04-06T06:38:07.861Z,1.95
2023-04-06T06:39:08.301Z,2.00
2023-04-06T06:40:07.883Z,2.06
2023-04-06T06:41:07.833Z,2.11
2023-04-06T06:42:07.810Z,2.15
2023-04-06T06:43:07.824Z,2.24
2023-04-06T06:44:08.016Z,2.28
2023-04-06T06:45:07.809Z,2.32
2023-04-06T06:46:07.824Z,2.36
2023-04-06T06:47:07.765Z,2.39
2023-04-06T06:48:07.791Z,2.49
2023-04-06T06:49:07.736Z,2.51
2023-04-06T06:50:07.733Z,2.57
2023-04-06T06:51:07.747Z,2.65
2023-04-06T06:52:07.700Z,2.69
2023-04-06T06:53:07.840Z,2.74
2023-04-06T06:54:08.140Z,2.80
2023-04-06T06:55:07.696Z,2.86
2023-04-06T06:56:07.665Z,2.93
2023-04-06T06:57:07.665Z,2.98
2023-04-06T06:58:07.651Z,3.04
2023-04-06T06:59:07.635Z,3.10
2023-04-06T07:00:07.607Z,3.16
2023-04-06T07:01:07.602Z,3.22
2023-04-06T07:02:07.591Z,3.28
2023-04-06T07:03:07.733Z,3.32
2023-04-06T07:04:07.914Z,3.41
2023-04-06T07:05:16.142Z,3.44
2023-04-06T07:06:08.531Z,3.51
2023-04-06T07:07:07.525Z,3.58
2023-04-06T07:08:07.545Z,3.65
2023-04-06T07:09:07.548Z,3.70
2023-04-06T07:10:07.502Z,3.78
2023-04-06T07:11:07.487Z,3.81
2023-04-06T07:12:07.491Z,3.87
2023-04-06T07:13:07.476Z,3.94
2023-04-06T07:14:07.885Z,3.98
2023-04-06T07:15:07.525Z,4.04
2023-04-06T07:16:07.489Z,4.08
2023-04-06T07:17:07.528Z,4.17
2023-04-06T07:18:07.504Z,4.22
2023-04-06T07:19:07.376Z,4.28
2023-04-06T07:20:07.617Z,4.44
2023-04-06T07:21:07.415Z,4.52
2023-04-06T07:22:07.357Z,4.60
2023-04-06T07:23:07.365Z,4.71
2023-04-06T07:24:07.528Z,4.86
2023-04-06T07:25:07.574Z,4.93
2023-04-06T07:26:07.456Z,5.04
2023-04-06T07:27:07.318Z,5.14
2023-04-06T07:28:07.361Z,5.30
2023-04-06T07:29:07.291Z,5.46
2023-04-06T07:30:07.328Z,5.53
2023-04-06T07:31:07.259Z,5.62
2023-04-06T07:32:07.351Z,5.69
2023-04-06T07:33:08.025Z,5.76
2023-04-06T07:34:07.475Z,5.82
2023-04-06T07:35:07.243Z,5.87
2023-04-06T07:36:07.299Z,5.93
2023-04-06T07:37:07.199Z,5.98
2023-04-06T07:38:07.211Z,6.05
2023-04-06T07:39:07.173Z,6.09
2023-04-06T07:40:07.161Z,6.14
2023-04-06T07:41:07.148Z,6.17
2023-04-06T07:42:07.172Z,6.22
2023-04-06T07:43:07.159Z,6.28
2023-04-06T07:44:07.623Z,6.33
2023-04-06T07:45:07.112Z,6.41
2023-04-06T07:46:07.150Z,6.44
2023-04-06T07:47:07.078Z,6.49
2023-04-06T07:48:07.127Z,6.54
2023-04-06T07:49:07.055Z,6.56
2023-04-06T07:50:07.045Z,6.64
2023-04-06T07:51:07.030Z,6.69
2023-04-06T07:52:07.065Z,6.74
2023-04-06T07:53:07.035Z,6.75
2023-04-06T07:54:07.300Z,6.78
2023-04-06T07:55:07.000Z,6.78
2023-04-06T07:56:06.985Z,6.81
2023-04-06T07:57:06.969Z,6.87
2023-04-06T07:58:07.275Z,6.93
2023-04-06T07:59:06.957Z,6.99
2023-04-06T08:00:06.938Z,7.03
2023-04-06T08:01:06.948Z,7.05
2023-04-06T08:02:06.979Z,7.06
2023-04-06T08:03:07.023Z,7.07
2023-04-06T08:04:07.157Z,7.11
2023-04-06T08:05:06.949Z,7.13
2023-04-06T08:06:07.199Z,7.14
2023-04-06T08:07:07.018Z,7.18
2023-04-06T08:08:06.958Z,7.24
2023-04-06T08:09:07.180Z,7.31
2023-04-06T08:10:06.955Z,7.38
2023-04-06T08:11:07.016Z,7.43
2023-04-06T08:12:06.965Z,7.43
2023-04-06T08:13:06.985Z,7.48
2023-04-06T08:14:07.303Z,7.51
2023-04-06T08:15:07.078Z,7.54
2023-04-06T08:16:07.015Z,7.57
2023-04-06T08:17:07.013Z,7.61
2023-04-06T08:18:07.025Z,7.67
2023-04-06T08:19:07.058Z,7.75
2023-04-06T08:20:07.121Z,7.79
2023-04-06T08:21:07.092Z,7.83
2023-04-06T08:22:07.004Z,7.88
2023-04-06T08:23:07.021Z,7.95
2023-04-06T08:24:07.074Z,8.03
2023-04-06T08:25:07.031Z,8.13
2023-04-06T08:26:06.663Z,8.18
2023-04-06T08:27:06.642Z,8.20
2023-04-06T08:28:06.625Z,8.27
2023-04-06T08:29:06.602Z,8.31
2023-04-06T08:30:06.607Z,8.37
2023-04-06T08:31:06.615Z,8.37
2023-04-06T08:32:06.591Z,8.36
2023-04-06T08:33:06.703Z,8.38
2023-04-06T08:34:07.083Z,8.46
2023-04-06T08:35:06.552Z,8.63
2023-04-06T08:36:13.603Z,8.78
2023-04-06T08:37:06.516Z,9.02
2023-04-06T08:38:06.496Z,9.16
2023-04-06T08:39:08.254Z,9.29
2023-04-06T08:40:06.510Z,9.44
2023-04-06T08:41:08.201Z,9.64
2023-04-06T08:42:06.518Z,9.79
2023-04-06T08:43:06.447Z,9.98
2023-04-06T08:44:06.553Z,10.12
2023-04-06T08:45:06.435Z,10.23
2023-04-06T08:46:06.441Z,10.38
2023-04-06T08:47:06.417Z,10.61
2023-04-06T08:48:06.467Z,10.68
2023-04-06T08:49:06.390Z,10.78
2023-04-06T08:50:06.389Z,10.89
2023-04-06T08:51:06.369Z,11.08
2023-04-06T08:52:06.351Z,11.23
2023-04-06T08:53:06.330Z,11.33
2023-04-06T08:54:06.428Z,11.41
2023-04-06T08:55:06.312Z,11.45
2023-04-06T08:56:06.362Z,11.37
2023-04-06T08:57:06.308Z,11.50
2023-04-06T08:58:06.278Z,11.72
2023-04-06T08:59:06.281Z,11.88
2023-04-06T09:00:06.299Z,12.07
2023-04-06T09:01:06.226Z,12.13
2023-04-06T09:02:06.312Z,12.00
2023-04-06T09:03:06.328Z,11.99
2023-04-06T09:04:08.343Z,12.09
2023-04-06T09:05:06.268Z,12.13
2023-04-06T09:06:06.191Z,12.13
2023-04-06T09:07:06.210Z,12.18
2023-04-06T09:08:06.156Z,12.20
2023-04-06T09:09:06.155Z,12.22
2023-04-06T09:10:06.144Z,12.28
2023-04-06T09:11:06.164Z,12.42
2023-04-06T09:12:06.120Z,12.43
2023-04-06T09:13:06.106Z,12.49
2023-04-06T09:14:06.284Z,12.60
2023-04-06T09:15:06.078Z,12.72
2023-04-06T09:16:06.157Z,12.78
2023-04-06T09:17:06.059Z,12.83
2023-04-06T09:18:06.068Z,12.31
2023-04-06T09:19:06.075Z,11.86
2023-04-06T09:20:06.272Z,11.68
2023-04-06T09:21:06.025Z,11.66
2023-04-06T09:22:06.027Z,11.83
2023-04-06T09:23:05.995Z,11.90
2023-04-06T09:24:06.074Z,11.84
2023-04-06T09:25:05.990Z,11.86
2023-04-06T09:26:05.944Z,11.88
2023-04-06T09:27:05.953Z,12.06
2023-04-06T09:28:05.936Z,12.20
2023-04-06T09:29:05.949Z,12.49
2023-04-06T09:30:05.924Z,12.39
2023-04-06T09:31:05.923Z,12.24
2023-04-06T09:32:05.919Z,12.29
2023-04-06T09:33:05.951Z,12.53
2023-04-06T09:34:05.874Z,12.31
2023-04-06T09:35:05.871Z,12.13
2023-04-06T09:36:05.891Z,11.70
2023-04-06T09:37:05.830Z,11.70
2023-04-06T09:38:05.820Z,11.66
2023-04-06T09:39:05.886Z,11.75
2023-04-06T09:40:05.836Z,11.59
2023-04-06T09:41:05.807Z,11.52
2023-04-06T09:42:05.802Z,11.81
2023-04-06T09:43:05.762Z,12.25
2023-04-06T09:44:06.011Z,12.54
2023-04-06T09:45:05.759Z,12.83
2023-04-06T09:46:05.778Z,12.93
2023-04-06T09:47:05.894Z,13.12
2023-04-06T09:48:05.759Z,13.47
2023-04-06T09:49:05.864Z,13.79
2023-04-06T09:50:05.682Z,14.00
2023-04-06T09:51:05.699Z,14.22
2023-04-06T09:52:05.664Z,14.23
2023-04-06T09:53:05.691Z,14.17
2023-04-06T09:54:05.739Z,14.22
2023-04-06T09:55:05.648Z,14.11
2023-04-06T09:56:05.657Z,14.20
2023-04-06T09:57:05.676Z,14.35
2023-04-06T09:58:05.600Z,14.32
2023-04-06T09:59:05.620Z,13.78
2023-04-06T10:00:05.580Z,13.54
2023-04-06T10:01:05.611Z,13.62
2023-04-06T10:02:05.580Z,13.70
2023-04-06T10:03:07.074Z,13.72
2023-04-06T10:04:05.752Z,13.68
2023-04-06T10:05:05.540Z,13.47
2023-04-06T10:06:05.529Z,13.38
2023-04-06T10:07:05.596Z,13.46
2023-04-06T10:08:05.463Z,13.63
2023-04-06T10:09:05.489Z,13.85
2023-04-06T10:10:05.461Z,14.03
2023-04-06T10:11:05.454Z,14.28
2023-04-06T10:12:05.438Z,14.60
2023-04-06T10:13:05.453Z,14.85
2023-04-06T10:14:05.442Z,14.94
2023-04-06T10:15:05.408Z,14.96
2023-04-06T10:16:05.400Z,15.09
2023-04-06T10:17:05.410Z,15.19
2023-04-06T10:18:05.447Z,15.03
2023-04-06T10:19:05.409Z,15.04
2023-04-06T10:20:05.333Z,15.18
2023-04-06T10:21:05.361Z,15.31
2023-04-06T10:22:05.308Z,15.36
2023-04-06T10:23:05.316Z,15.42
2023-04-06T10:24:05.320Z,15.43
2023-04-06T10:25:05.287Z,15.46
2023-04-06T10:26:05.262Z,15.62
2023-04-06T10:27:05.298Z,15.77
2023-04-06T10:28:05.233Z,15.88
2023-04-06T10:29:05.249Z,15.98
2023-04-06T10:30:05.275Z,15.92
2023-04-06T10:31:05.217Z,15.95
2023-04-06T10:32:05.248Z,15.92
2023-04-06T10:33:05.245Z,15.84
2023-04-06T10:34:05.204Z,15.86
2023-04-06T10:35:05.211Z,15.83
2023-04-06T10:36:05.259Z,15.91
2023-04-06T10:37:05.157Z,15.98
2023-04-06T10:38:05.142Z,16.10
2023-04-06T10:39:05.176Z,16.09
2023-04-06T10:40:05.141Z,15.98
2023-04-06T10:41:05.135Z,15.76
2023-04-06T10:42:05.098Z,15.84
2023-04-06T10:43:05.144Z,15.98
2023-04-06T10:44:05.071Z,16.02
2023-04-06T10:45:05.060Z,16.13
2023-04-06T10:46:05.120Z,16.08
2023-04-06T10:47:05.073Z,16.02
2023-04-06T10:48:05.068Z,16.08
2023-04-06T10:49:05.027Z,15.58
2023-04-06T10:50:05.011Z,15.67
2023-04-06T10:51:05.004Z,15.83
2023-04-06T10:52:04.983Z,15.97
2023-04-06T10:53:04.983Z,16.17
2023-04-06T10:54:04.971Z,16.38
2023-04-06T10:55:05.031Z,16.42
2023-04-06T10:56:04.962Z,16.39
2023-04-06T10:57:04.929Z,16.09
2023-04-06T10:58:04.919Z,16.08
2023-04-06T10:59:04.959Z,15.90
2023-04-06T11:00:04.929Z,15.90
2023-04-06T11:01:04.958Z,16.12
2023-04-06T11:02:04.863Z,16.33
2023-04-06T11:03:04.913Z,16.50
2023-04-06T11:04:04.864Z,16.54
2023-04-06T11:05:04.852Z,16.51
2023-04-06T11:06:04.849Z,16.38
2023-04-06T11:07:04.824Z,16.16
2023-04-06T11:08:04.798Z,15.94
2023-04-06T11:09:04.798Z,15.94
2023-04-06T11:10:15.583Z,15.61
2023-04-06T11:11:05.835Z,15.19
2023-04-06T11:12:04.751Z,15.24
2023-04-06T11:13:04.763Z,15.52
2023-04-06T11:14:04.725Z,15.82
2023-04-06T11:15:04.726Z,16.04
2023-04-06T11:16:04.700Z,16.20
2023-04-06T11:17:04.804Z,16.35
2023-04-06T11:18:04.735Z,16.41
2023-04-06T11:19:04.716Z,16.38
2023-04-06T11:20:04.731Z,16.50
2023-04-06T11:21:04.654Z,16.53
2023-04-06T11:22:04.662Z,16.38
2023-04-06T11:23:04.635Z,16.36
2023-04-06T11:24:04.607Z,16.31
2023-04-06T11:25:04.631Z,16.05
2023-04-06T11:26:04.582Z,15.73
2023-04-06T11:27:04.631Z,15.68
2023-04-06T11:28:04.564Z,15.77
2023-04-06T11:29:04.566Z,16.08
2023-04-06T11:30:04.540Z,16.28
2023-04-06T11:31:04.569Z,16.29
2023-04-06T11:32:04.630Z,16.05
2023-04-06T11:33:04.595Z,15.97
2023-04-06T11:34:04.509Z,15.55
2023-04-06T11:35:04.503Z,15.29
2023-04-06T11:36:04.543Z,15.24
2023-04-06T11:37:04.479Z,15.18
2023-04-06T11:38:04.518Z,15.24
2023-04-06T11:39:04.467Z,15.21
2023-04-06T11:40:04.447Z,15.29
2023-04-06T11:41:04.429Z,15.39
2023-04-06T11:42:06.843Z,15.31
2023-04-06T11:43:04.404Z,14.81
2023-04-06T11:44:04.421Z,14.62
2023-04-06T11:45:04.391Z,14.53
2023-04-06T11:46:04.439Z,14.88
2023-04-06T11:47:04.409Z,15.21
2023-04-06T11:48:04.418Z,15.36
2023-04-06T11:49:04.448Z,15.06
2023-04-06T11:50:04.352Z,14.99
2023-04-06T11:51:04.329Z,14.72
2023-04-06T11:52:04.336Z,14.43
2023-04-06T11:53:04.411Z,14.32
2023-04-06T11:54:04.282Z,14.33
2023-04-06T11:55:04.281Z,14.45
2023-04-06T11:56:04.303Z,14.53
2023-04-06T11:57:04.264Z,14.55
2023-04-06T11:58:04.254Z,14.73
2023-04-06T11:59:04.257Z,14.89
2023-04-06T12:00:04.252Z,15.10
2023-04-06T12:01:04.205Z,15.15
2023-04-06T12:02:04.210Z,15.14
2023-04-06T12:03:04.277Z,15.29
2023-04-06T12:04:04.285Z,15.40
2023-04-06T12:05:04.181Z,15.46
2023-04-06T12:06:04.157Z,15.37
2023-04-06T12:07:04.123Z,15.37
2023-04-06T12:08:04.129Z,15.46
2023-04-06T12:09:04.120Z,15.61
2023-04-06T12:10:04.105Z,15.70
2023-04-06T12:11:04.168Z,15.84
2023-04-06T12:12:04.081Z,16.01
2023-04-06T12:13:04.312Z,16.16
2023-04-06T12:14:04.053Z,16.23
2023-04-06T12:15:04.044Z,16.17
2023-04-06T12:16:04.080Z,16.01
2023-04-06T12:17:04.060Z,15.86
2023-04-06T12:18:04.051Z,15.70
2023-04-06T12:19:04.000Z,15.31
2023-04-06T12:20:13.417Z,15.31
2023-04-06T12:21:04.999Z,15.54
2023-04-06T12:22:03.967Z,15.90
2023-04-06T12:23:03.953Z,15.97
2023-04-06T12:24:03.935Z,15.92
2023-04-06T12:25:03.945Z,15.73
2023-04-06T12:26:03.912Z,15.68
2023-04-06T12:27:10.132Z,15.82
2023-04-06T12:28:04.907Z,15.79
2023-04-06T12:29:03.908Z,15.90
2023-04-06T12:30:03.860Z,16.02
2023-04-06T12:31:03.934Z,16.17
2023-04-06T12:32:03.898Z,16.29
2023-04-06T12:33:03.906Z,16.35
2023-04-06T12:34:03.837Z,16.31
2023-04-06T12:35:03.819Z,16.32
2023-04-06T12:36:03.809Z,16.01
2023-04-06T12:37:03.853Z,15.91
2023-04-06T12:38:03.801Z,15.75
2023-04-06T12:39:03.781Z,15.47
2023-04-06T12:40:03.745Z,15.35
2023-04-06T12:41:03.760Z,15.25
2023-04-06T12:42:03.811Z,15.19
2023-04-06T12:43:03.720Z,15.29
2023-04-06T12:44:03.736Z,15.54
2023-04-06T12:45:03.746Z,15.84
2023-04-06T12:46:03.721Z,16.08
2023-04-06T12:47:03.709Z,16.23
2023-04-06T12:48:03.704Z,16.12
2023-04-06T12:49:03.692Z,16.00
2023-04-06T12:50:03.639Z,16.09
2023-04-06T12:51:03.662Z,16.16
2023-04-06T12:52:03.626Z,15.98
2023-04-06T12:53:03.611Z,16.10
2023-04-06T12:54:03.600Z,16.23
2023-04-06T12:55:03.607Z,16.35
2023-04-06T12:56:03.573Z,16.47
2023-04-06T12:57:03.580Z,16.64
2023-04-06T12:58:03.562Z,16.76
2023-04-06T12:59:03.635Z,16.81
2023-04-06T13:00:03.693Z,16.86
2023-04-06T13:01:03.579Z,16.96
2023-04-06T13:02:03.528Z,16.87
2023-04-06T13:03:03.536Z,16.51
2023-04-06T13:04:03.489Z,16.31
2023-04-06T13:05:03.483Z,16.02
2023-04-06T13:06:03.452Z,15.76
2023-04-06T13:07:03.465Z,15.51
2023-04-06T13:08:03.454Z,15.27
2023-04-06T13:09:03.451Z,15.37